sensor_id;sensor_type;location;lat;lon;timestamp;temperature;humidity
48912;DHT22;34722;52.108;5.044;2022-10-15T00:01:14;12.70;99.90
48912;DHT22;34722;52.108;5.044;2022-10-15T00:03:41;12.70;99.90
48912;DHT22;34722;52.108;5.044;2022-10-15T00:06:13;12.70;99.90
48912;DHT22;34722;52.108;5.044;2022-10-15T00:08:40;12.70;99.90
48912;DHT22;34722;52.108;5.044;2022-10-15T00:11:11;12.60;99.90
48912;DHT22;34722;52.108;5.044;2022-10-15T00:13:38;12.70;99.90
48912;DHT22;34722;52.108;5.044;2022-10-15T00:16:10;12.70;99.90
48912;DHT22;34722;52.108;5.044;2022-10-15T00:18:36;12.70;99.90
48912;DHT22;34722;52.108;5.044;2022-10-15T00:21:05;12.70;99.90
48912;DHT22;34722;52.108;5.044;2022-10-15T00:23:32;12.70;99.90
48912;DHT22;34722;52.108;5.044;2022-10-15T00:26:05;12.70;99.90
48912;DHT22;34722;52.108;5.044;2022-10-15T00:28:32;12.70;99.90
48912;DHT22;34722;52.108;5.044;2022-10-15T00:31:10;12.80;99.90
48912;DHT22;34722;52.108;5.044;2022-10-15T00:33:36;12.80;99.90
48912;DHT22;34722;52.108;5.044;2022-10-15T00:36:05;12.90;99.90
48912;DHT22;34722;52.108;5.044;2022-10-15T00:38:32;12.80;99.90
48912;DHT22;34722;52.108;5.044;2022-10-15T00:40:58;12.80;99.90
48912;DHT22;34722;52.108;5.044;2022-10-15T00:43:49;12.80;99.90
48912;DHT22;34722;52.108;5.044;2022-10-15T00:46:34;12.80;99.90
48912;DHT22;34722;52.108;5.044;2022-10-15T00:49:17;12.70;99.90
48912;DHT22;34722;52.108;5.044;2022-10-15T00:51:46;12.60;99.90
48912;DHT22;34722;52.108;5.044;2022-10-15T00:54:14;12.60;99.90
48912;DHT22;34722;52.108;5.044;2022-10-15T00:56:42;12.60;99.90
48912;DHT22;34722;52.108;5.044;2022-10-15T00:59:11;12.50;99.90
48912;DHT22;34722;52.108;5.044;2022-10-15T01:01:38;12.60;99.90
48912;DHT22;34722;52.108;5.044;2022-10-15T01:04:05;12.50;99.90
48912;DHT22;34722;52.108;5.044;2022-10-15T01:06:32;12.50;99.90
48912;DHT22;34722;52.108;5.044;2022-10-15T01:08:58;12.50;99.90
48912;DHT22;34722;52.108;5.044;2022-10-15T01:11:47;12.50;99.90
48912;DHT22;34722;52.108;5.044;2022-10-15T01:14:28;12.50;99.90
48912;DHT22;34722;52.108;5.044;2022-10-15T01:25:27;12.60;99.90
48912;DHT22;34722;52.108;5.044;2022-10-15T01:28:00;12.60;99.90
48912;DHT22;34722;52.108;5.044;2022-10-15T01:30:37;12.70;99.90
48912;DHT22;34722;52.108;5.044;2022-10-15T01:33:14;12.60;99.90
48912;DHT22;34722;52.108;5.044;2022-10-15T01:41:10;12.80;99.90
48912;DHT22;34722;52.108;5.044;2022-10-15T01:43:46;12.80;99.90
48912;DHT22;34722;52.108;5.044;2022-10-15T01:46:32;12.90;99.90
48912;DHT22;34722;52.108;5.044;2022-10-15T01:49:02;12.90;99.90
48912;DHT22;34722;52.108;5.044;2022-10-15T01:51:31;12.90;99.90
48912;DHT22;34722;52.108;5.044;2022-10-15T01:53:59;12.90;99.90
48912;DHT22;34722;52.108;5.044;2022-10-15T01:56:26;12.90;99.90
48912;DHT22;34722;52.108;5.044;2022-10-15T01:58:56;12.90;99.90
48912;DHT22;34722;52.108;5.044;2022-10-15T02:01:25;12.90;99.90
48912;DHT22;34722;52.108;5.044;2022-10-15T02:03:51;13.00;99.90
48912;DHT22;34722;52.108;5.044;2022-10-15T02:06:26;13.00;99.90
48912;DHT22;34722;52.108;5.044;2022-10-15T02:09:03;12.90;99.90
48912;DHT22;34722;52.108;5.044;2022-10-15T02:11:47;13.00;99.90
48912;DHT22;34722;52.108;5.044;2022-10-15T02:14:20;13.00;99.90
48912;DHT22;34722;52.108;5.044;2022-10-15T02:17:05;13.00;99.90
48912;DHT22;34722;52.108;5.044;2022-10-15T02:19:37;13.00;99.90
48912;DHT22;34722;52.108;5.044;2022-10-15T02:22:25;13.00;99.90
48912;DHT22;34722;52.108;5.044;2022-10-15T02:24:56;12.90;99.90
48912;DHT22;34722;52.108;5.044;2022-10-15T02:27:23;13.00;99.90
48912;DHT22;34722;52.108;5.044;2022-10-15T02:30:00;12.90;99.90
48912;DHT22;34722;52.108;5.044;2022-10-15T10:45:24;15.00;99.90
48912;DHT22;34722;52.108;5.044;2022-10-15T10:47:51;15.00;99.90
48912;DHT22;34722;52.108;5.044;2022-10-15T10:50:33;15.00;99.90
48912;DHT22;34722;52.108;5.044;2022-10-15T10:53:18;15.00;99.90
48912;DHT22;34722;52.108;5.044;2022-10-15T10:55:45;15.00;99.90
48912;DHT22;34722;52.108;5.044;2022-10-15T10:58:18;15.00;99.90
48912;DHT22;34722;52.108;5.044;2022-10-15T11:00:47;15.10;99.90
48912;DHT22;34722;52.108;5.044;2022-10-15T11:03:30;15.10;99.90
48912;DHT22;34722;52.108;5.044;2022-10-15T11:08:43;15.20;99.90
48912;DHT22;34722;52.108;5.044;2022-10-15T11:27:21;15.30;99.90
48912;DHT22;34722;52.108;5.044;2022-10-15T11:30:00;15.30;99.90
48912;DHT22;34722;52.108;5.044;2022-10-15T11:35:38;15.30;99.90
48912;DHT22;34722;52.108;5.044;2022-10-15T11:38:24;15.30;99.90
48912;DHT22;34722;52.108;5.044;2022-10-15T11:43:54;15.40;99.90
48912;DHT22;34722;52.108;5.044;2022-10-15T11:46:34;15.40;99.90
48912;DHT22;34722;52.108;5.044;2022-10-15T11:52:12;15.50;99.90
48912;DHT22;34722;52.108;5.044;2022-10-15T11:57:32;15.60;99.90
48912;DHT22;34722;52.108;5.044;2022-10-15T12:02:39;15.60;99.90
48912;DHT22;34722;52.108;5.044;2022-10-15T12:05:07;15.70;99.90
48912;DHT22;34722;52.108;5.044;2022-10-15T12:07:46;15.70;99.90
48912;DHT22;34722;52.108;5.044;2022-10-15T12:13:15;15.80;99.90
48912;DHT22;34722;52.108;5.044;2022-10-15T12:29:50;16.20;99.90
48912;DHT22;34722;52.108;5.044;2022-10-15T12:32:22;16.20;99.90
48912;DHT22;34722;52.108;5.044;2022-10-15T12:35:15;16.30;99.90
48912;DHT22;34722;52.108;5.044;2022-10-15T12:37:45;16.40;99.90
48912;DHT22;34722;52.108;5.044;2022-10-15T12:40:28;16.40;99.90
48912;DHT22;34722;52.108;5.044;2022-10-15T12:43:04;16.50;99.90
48912;DHT22;34722;52.108;5.044;2022-10-15T12:45:40;16.60;99.90
48912;DHT22;34722;52.108;5.044;2022-10-15T12:48:19;16.70;99.90
48912;DHT22;34722;52.108;5.044;2022-10-15T12:50:45;16.70;99.90
48912;DHT22;34722;52.108;5.044;2022-10-15T12:58:55;17.10;99.90
48912;DHT22;34722;52.108;5.044;2022-10-15T13:04:12;16.90;99.90
48912;DHT22;34722;52.108;5.044;2022-10-15T13:06:38;17.10;99.90
48912;DHT22;34722;52.108;5.044;2022-10-15T13:14:48;17.50;99.90
48912;DHT22;34722;52.108;5.044;2022-10-15T13:17:24;17.50;99.90
48912;DHT22;34722;52.108;5.044;2022-10-15T13:20:04;17.30;99.90
48912;DHT22;34722;52.108;5.044;2022-10-15T13:22:35;17.30;99.90
48912;DHT22;34722;52.108;5.044;2022-10-15T13:25:13;17.30;99.90
48912;DHT22;34722;52.108;5.044;2022-10-15T13:27:43;17.30;99.90
48912;DHT22;34722;52.108;5.044;2022-10-15T13:30:16;17.30;99.90
48912;DHT22;34722;52.108;5.044;2022-10-15T13:32:50;17.30;99.90
48912;DHT22;34722;52.108;5.044;2022-10-15T13:35:24;17.40;99.90
48912;DHT22;34722;52.108;5.044;2022-10-15T13:37:58;17.30;99.90
48912;DHT22;34722;52.108;5.044;2022-10-15T13:40:27;17.20;99.90
48912;DHT22;34722;52.108;5.044;2022-10-15T13:43:22;17.10;99.90
48912;DHT22;34722;52.108;5.044;2022-10-15T13:45:55;17.20;99.90
48912;DHT22;34722;52.108;5.044;2022-10-15T13:48:39;17.30;99.90
48912;DHT22;34722;52.108;5.044;2022-10-15T13:51:09;17.20;99.90
48912;DHT22;34722;52.108;5.044;2022-10-15T13:54:27;17.20;99.90
48912;DHT22;34722;52.108;5.044;2022-10-15T14:44:22;16.30;92.20
48912;DHT22;34722;52.108;5.044;2022-10-15T14:47:14;16.20;99.90
48912;DHT22;34722;52.108;5.044;2022-10-15T14:49:46;16.10;99.90
48912;DHT22;34722;52.108;5.044;2022-10-15T14:52:42;16.20;99.90
48912;DHT22;34722;52.108;5.044;2022-10-15T14:55:41;16.20;99.90
48912;DHT22;34722;52.108;5.044;2022-10-15T14:58:32;16.20;99.90
48912;DHT22;34722;52.108;5.044;2022-10-15T15:04:41;16.20;99.90
48912;DHT22;34722;52.108;5.044;2022-10-15T15:07:26;16.30;93.80
48912;DHT22;34722;52.108;5.044;2022-10-15T15:10:00;16.20;97.00
48912;DHT22;34722;52.108;5.044;2022-10-15T15:12:27;16.20;96.60
48912;DHT22;34722;52.108;5.044;2022-10-15T15:14:53;16.10;99.90
48912;DHT22;34722;52.108;5.044;2022-10-15T15:17:27;16.00;92.90
48912;DHT22;34722;52.108;5.044;2022-10-15T15:19:54;16.00;96.20
48912;DHT22;34722;52.108;5.044;2022-10-15T15:22:29;16.00;96.00
48912;DHT22;34722;52.108;5.044;2022-10-15T15:24:57;16.00;99.90
48912;DHT22;34722;52.108;5.044;2022-10-15T15:27:27;16.00;99.90
48912;DHT22;34722;52.108;5.044;2022-10-15T15:30:16;16.00;92.60
48912;DHT22;34722;52.108;5.044;2022-10-15T15:32:44;16.00;99.90
48912;DHT22;34722;52.108;5.044;2022-10-15T15:38:21;15.80;99.90
48912;DHT22;34722;52.108;5.044;2022-10-15T15:40:48;15.80;99.90
48912;DHT22;34722;52.108;5.044;2022-10-15T15:43:18;15.80;99.90
48912;DHT22;34722;52.108;5.044;2022-10-15T15:45:46;15.70;98.80
48912;DHT22;34722;52.108;5.044;2022-10-15T15:48:15;15.60;99.90
48912;DHT22;34722;52.108;5.044;2022-10-15T15:50:49;15.50;99.90
48912;DHT22;34722;52.108;5.044;2022-10-15T15:53:15;15.40;99.90
48912;DHT22;34722;52.108;5.044;2022-10-15T15:55:40;15.30;99.90
48912;DHT22;34722;52.108;5.044;2022-10-15T15:58:14;15.30;99.90
48912;DHT22;34722;52.108;5.044;2022-10-15T16:00:46;15.20;99.90
48912;DHT22;34722;52.108;5.044;2022-10-15T16:03:13;15.10;99.90
48912;DHT22;34722;52.108;5.044;2022-10-15T16:05:39;15.00;99.90
48912;DHT22;34722;52.108;5.044;2022-10-15T16:08:06;15.00;99.90
48912;DHT22;34722;52.108;5.044;2022-10-15T16:10:32;14.90;99.90
48912;DHT22;34722;52.108;5.044;2022-10-15T16:13:02;14.80;99.90
48912;DHT22;34722;52.108;5.044;2022-10-15T16:15:30;14.70;99.90
48912;DHT22;34722;52.108;5.044;2022-10-15T16:17:57;14.60;99.90
48912;DHT22;34722;52.108;5.044;2022-10-15T16:20:26;14.60;99.90
48912;DHT22;34722;52.108;5.044;2022-10-15T16:22:55;14.50;99.90
48912;DHT22;34722;52.108;5.044;2022-10-15T16:25:20;14.50;99.90
48912;DHT22;34722;52.108;5.044;2022-10-15T16:27:47;14.40;99.90
48912;DHT22;34722;52.108;5.044;2022-10-15T16:30:21;14.30;99.90
48912;DHT22;34722;52.108;5.044;2022-10-15T16:32:46;14.20;99.90
48912;DHT22;34722;52.108;5.044;2022-10-15T16:35:12;14.20;99.90
48912;DHT22;34722;52.108;5.044;2022-10-15T16:37:38;14.10;99.90
48912;DHT22;34722;52.108;5.044;2022-10-15T16:40:04;13.90;99.90
48912;DHT22;34722;52.108;5.044;2022-10-15T16:42:30;13.80;99.90
48912;DHT22;34722;52.108;5.044;2022-10-15T16:44:56;13.70;99.90
48912;DHT22;34722;52.108;5.044;2022-10-15T16:47:22;13.70;99.90
48912;DHT22;34722;52.108;5.044;2022-10-15T16:49:48;13.60;99.90
48912;DHT22;34722;52.108;5.044;2022-10-15T16:52:14;13.60;99.90
48912;DHT22;34722;52.108;5.044;2022-10-15T16:54:40;13.50;99.90
48912;DHT22;34722;52.108;5.044;2022-10-15T16:57:06;13.50;99.90
48912;DHT22;34722;52.108;5.044;2022-10-15T16:59:32;13.50;99.90
48912;DHT22;34722;52.108;5.044;2022-10-15T17:01:58;13.50;99.90
48912;DHT22;34722;52.108;5.044;2022-10-15T17:04:25;13.50;99.90
48912;DHT22;34722;52.108;5.044;2022-10-15T17:06:51;13.40;99.90
48912;DHT22;34722;52.108;5.044;2022-10-15T17:09:19;13.40;99.90
48912;DHT22;34722;52.108;5.044;2022-10-15T17:11:46;13.50;99.90
48912;DHT22;34722;52.108;5.044;2022-10-15T17:14:14;13.50;99.90
48912;DHT22;34722;52.108;5.044;2022-10-15T17:16:43;13.40;99.90
48912;DHT22;34722;52.108;5.044;2022-10-15T17:19:21;13.30;99.90
48912;DHT22;34722;52.108;5.044;2022-10-15T17:21:48;13.30;99.90
48912;DHT22;34722;52.108;5.044;2022-10-15T17:24:23;13.30;99.90
48912;DHT22;34722;52.108;5.044;2022-10-15T17:26:49;13.30;99.90
48912;DHT22;34722;52.108;5.044;2022-10-15T17:29:19;13.40;99.90
48912;DHT22;34722;52.108;5.044;2022-10-15T17:31:48;13.40;99.90
48912;DHT22;34722;52.108;5.044;2022-10-15T17:34:14;13.40;99.90
48912;DHT22;34722;52.108;5.044;2022-10-15T17:36:42;13.40;99.90
48912;DHT22;34722;52.108;5.044;2022-10-15T17:39:11;13.30;99.90
48912;DHT22;34722;52.108;5.044;2022-10-15T17:41:40;13.30;99.90
48912;DHT22;34722;52.108;5.044;2022-10-15T17:44:06;13.30;99.90
48912;DHT22;34722;52.108;5.044;2022-10-15T17:46:32;13.30;99.90
48912;DHT22;34722;52.108;5.044;2022-10-15T17:48:58;13.20;99.90
48912;DHT22;34722;52.108;5.044;2022-10-15T17:51:27;13.20;99.90
48912;DHT22;34722;52.108;5.044;2022-10-15T17:53:57;13.30;99.90
48912;DHT22;34722;52.108;5.044;2022-10-15T17:56:33;13.30;99.90
48912;DHT22;34722;52.108;5.044;2022-10-15T17:59:00;13.40;99.90
48912;DHT22;34722;52.108;5.044;2022-10-15T18:01:38;13.40;99.90
48912;DHT22;34722;52.108;5.044;2022-10-15T18:04:04;13.50;99.90
48912;DHT22;34722;52.108;5.044;2022-10-15T18:06:31;13.60;99.90
48912;DHT22;34722;52.108;5.044;2022-10-15T18:08:56;13.60;99.90
48912;DHT22;34722;52.108;5.044;2022-10-15T18:11:28;13.60;99.90
48912;DHT22;34722;52.108;5.044;2022-10-15T18:13:54;13.60;99.90
48912;DHT22;34722;52.108;5.044;2022-10-15T18:16:20;13.70;99.90
48912;DHT22;34722;52.108;5.044;2022-10-15T18:18:46;13.70;99.90
48912;DHT22;34722;52.108;5.044;2022-10-15T18:21:29;13.70;99.90
48912;DHT22;34722;52.108;5.044;2022-10-15T18:23:58;13.70;99.90
48912;DHT22;34722;52.108;5.044;2022-10-15T18:26:24;13.70;99.90
48912;DHT22;34722;52.108;5.044;2022-10-15T18:28:51;13.70;99.90
48912;DHT22;34722;52.108;5.044;2022-10-15T18:31:43;13.70;99.90
48912;DHT22;34722;52.108;5.044;2022-10-15T18:34:20;13.70;99.90
48912;DHT22;34722;52.108;5.044;2022-10-15T18:36:46;13.70;99.90
48912;DHT22;34722;52.108;5.044;2022-10-15T18:39:15;13.70;99.90
48912;DHT22;34722;52.108;5.044;2022-10-15T18:41:41;13.70;99.90
48912;DHT22;34722;52.108;5.044;2022-10-15T18:44:13;13.60;99.90
48912;DHT22;34722;52.108;5.044;2022-10-15T18:46:41;13.60;99.90
48912;DHT22;34722;52.108;5.044;2022-10-15T18:49:11;13.60;99.90
48912;DHT22;34722;52.108;5.044;2022-10-15T18:51:37;13.70;99.90
48912;DHT22;34722;52.108;5.044;2022-10-15T18:54:03;13.70;99.90
48912;DHT22;34722;52.108;5.044;2022-10-15T18:56:31;13.60;99.90
48912;DHT22;34722;52.108;5.044;2022-10-15T18:58:57;13.60;99.90
48912;DHT22;34722;52.108;5.044;2022-10-15T19:01:26;13.60;99.90
48912;DHT22;34722;52.108;5.044;2022-10-15T19:03:56;13.60;99.90
48912;DHT22;34722;52.108;5.044;2022-10-15T19:06:35;13.60;99.90
48912;DHT22;34722;52.108;5.044;2022-10-15T19:09:03;13.70;99.90
48912;DHT22;34722;52.108;5.044;2022-10-15T19:11:29;13.70;99.90
48912;DHT22;34722;52.108;5.044;2022-10-15T19:13:56;13.70;99.90
48912;DHT22;34722;52.108;5.044;2022-10-15T19:16:26;13.70;99.90
48912;DHT22;34722;52.108;5.044;2022-10-15T19:18:55;13.70;99.90
48912;DHT22;34722;52.108;5.044;2022-10-15T19:21:22;13.80;99.90
48912;DHT22;34722;52.108;5.044;2022-10-15T19:23:48;13.90;99.90
48912;DHT22;34722;52.108;5.044;2022-10-15T19:26:15;13.90;99.90
48912;DHT22;34722;52.108;5.044;2022-10-15T19:28:41;13.90;99.90
48912;DHT22;34722;52.108;5.044;2022-10-15T19:31:15;13.90;99.90
48912;DHT22;34722;52.108;5.044;2022-10-15T19:33:45;13.90;99.90
48912;DHT22;34722;52.108;5.044;2022-10-15T19:36:18;13.90;99.90
48912;DHT22;34722;52.108;5.044;2022-10-15T19:38:44;14.00;99.90
48912;DHT22;34722;52.108;5.044;2022-10-15T19:41:10;14.00;99.90
48912;DHT22;34722;52.108;5.044;2022-10-15T19:43:36;14.10;99.90
48912;DHT22;34722;52.108;5.044;2022-10-15T19:49:08;14.20;99.90
48912;DHT22;34722;52.108;5.044;2022-10-15T19:51:35;14.20;99.90
48912;DHT22;34722;52.108;5.044;2022-10-15T19:54:01;14.20;99.90
48912;DHT22;34722;52.108;5.044;2022-10-15T19:56:27;14.10;99.90
48912;DHT22;34722;52.108;5.044;2022-10-15T19:58:54;14.10;99.90
48912;DHT22;34722;52.108;5.044;2022-10-15T20:01:21;14.10;99.90
48912;DHT22;34722;52.108;5.044;2022-10-15T20:03:46;14.00;99.90
48912;DHT22;34722;52.108;5.044;2022-10-15T20:06:12;13.90;99.90
48912;DHT22;34722;52.108;5.044;2022-10-15T20:08:47;13.80;99.90
48912;DHT22;34722;52.108;5.044;2022-10-15T20:11:17;13.80;99.90
48912;DHT22;34722;52.108;5.044;2022-10-15T20:13:46;13.70;99.90
48912;DHT22;34722;52.108;5.044;2022-10-15T20:16:12;13.80;99.90
48912;DHT22;34722;52.108;5.044;2022-10-15T20:18:39;13.70;99.90
48912;DHT22;34722;52.108;5.044;2022-10-15T20:21:09;13.60;99.90
48912;DHT22;34722;52.108;5.044;2022-10-15T20:23:36;13.50;99.90
48912;DHT22;34722;52.108;5.044;2022-10-15T20:26:07;13.70;99.90
48912;DHT22;34722;52.108;5.044;2022-10-15T20:28:44;13.60;99.90
48912;DHT22;34722;52.108;5.044;2022-10-15T20:31:17;13.70;99.90
48912;DHT22;34722;52.108;5.044;2022-10-15T20:33:52;13.70;99.90
48912;DHT22;34722;52.108;5.044;2022-10-15T20:36:18;13.70;99.90
48912;DHT22;34722;52.108;5.044;2022-10-15T20:38:45;13.80;99.90
48912;DHT22;34722;52.108;5.044;2022-10-15T20:41:15;13.80;99.90
48912;DHT22;34722;52.108;5.044;2022-10-15T20:43:43;13.80;99.90
48912;DHT22;34722;52.108;5.044;2022-10-15T20:46:12;13.80;99.90
48912;DHT22;34722;52.108;5.044;2022-10-15T20:48:39;13.80;99.90
48912;DHT22;34722;52.108;5.044;2022-10-15T20:51:10;13.80;99.90
48912;DHT22;34722;52.108;5.044;2022-10-15T20:53:41;13.80;99.90
48912;DHT22;34722;52.108;5.044;2022-10-15T20:56:13;13.80;99.90
48912;DHT22;34722;52.108;5.044;2022-10-15T20:58:39;13.90;99.90
48912;DHT22;34722;52.108;5.044;2022-10-15T21:01:08;13.90;99.90
48912;DHT22;34722;52.108;5.044;2022-10-15T21:03:34;13.90;99.90
48912;DHT22;34722;52.108;5.044;2022-10-15T21:06:01;13.90;99.90
48912;DHT22;34722;52.108;5.044;2022-10-15T21:08:27;13.90;99.90
48912;DHT22;34722;52.108;5.044;2022-10-15T21:10:59;13.90;99.90
48912;DHT22;34722;52.108;5.044;2022-10-15T21:13:28;13.90;99.90
48912;DHT22;34722;52.108;5.044;2022-10-15T21:16:10;13.90;99.90
48912;DHT22;34722;52.108;5.044;2022-10-15T21:18:36;13.90;99.90
48912;DHT22;34722;52.108;5.044;2022-10-15T21:21:05;13.90;99.90
48912;DHT22;34722;52.108;5.044;2022-10-15T21:23:32;13.90;99.90
48912;DHT22;34722;52.108;5.044;2022-10-15T21:26:13;13.90;99.90
48912;DHT22;34722;52.108;5.044;2022-10-15T21:28:39;13.80;99.90
48912;DHT22;34722;52.108;5.044;2022-10-15T21:31:06;13.80;99.90
48912;DHT22;34722;52.108;5.044;2022-10-15T21:33:33;13.70;99.90
48912;DHT22;34722;52.108;5.044;2022-10-15T21:36:20;13.70;99.90
48912;DHT22;34722;52.108;5.044;2022-10-15T21:38:48;13.60;99.90
48912;DHT22;34722;52.108;5.044;2022-10-15T21:41:16;13.60;99.90
48912;DHT22;34722;52.108;5.044;2022-10-15T21:43:41;13.70;99.90
48912;DHT22;34722;52.108;5.044;2022-10-15T21:46:11;13.70;99.90
48912;DHT22;34722;52.108;5.044;2022-10-15T21:48:38;13.70;99.90
48912;DHT22;34722;52.108;5.044;2022-10-15T21:51:09;13.70;99.90
48912;DHT22;34722;52.108;5.044;2022-10-15T21:53:35;13.70;99.90
48912;DHT22;34722;52.108;5.044;2022-10-15T21:56:01;13.70;99.90
48912;DHT22;34722;52.108;5.044;2022-10-15T21:58:27;13.60;99.90
48912;DHT22;34722;52.108;5.044;2022-10-15T22:00:53;13.60;99.90
48912;DHT22;34722;52.108;5.044;2022-10-15T22:03:20;13.60;99.90
48912;DHT22;34722;52.108;5.044;2022-10-15T22:05:47;13.60;99.90
48912;DHT22;34722;52.108;5.044;2022-10-15T22:08:13;13.60;99.90
48912;DHT22;34722;52.108;5.044;2022-10-15T22:10:38;13.60;99.90
48912;DHT22;34722;52.108;5.044;2022-10-15T22:13:04;13.60;99.90
48912;DHT22;34722;52.108;5.044;2022-10-15T22:15:32;13.60;99.90
48912;DHT22;34722;52.108;5.044;2022-10-15T22:17:58;13.60;99.90
48912;DHT22;34722;52.108;5.044;2022-10-15T22:20:24;13.60;99.90
48912;DHT22;34722;52.108;5.044;2022-10-15T22:22:53;13.60;99.90
48912;DHT22;34722;52.108;5.044;2022-10-15T22:25:22;13.50;99.90
48912;DHT22;34722;52.108;5.044;2022-10-15T22:27:48;13.50;99.90
48912;DHT22;34722;52.108;5.044;2022-10-15T22:30:17;13.30;99.90
48912;DHT22;34722;52.108;5.044;2022-10-15T22:32:43;13.30;99.90
48912;DHT22;34722;52.108;5.044;2022-10-15T22:35:12;13.30;99.90
48912;DHT22;34722;52.108;5.044;2022-10-15T22:37:41;13.30;99.90
48912;DHT22;34722;52.108;5.044;2022-10-15T22:40:11;13.20;99.90
48912;DHT22;34722;52.108;5.044;2022-10-15T22:42:40;13.10;99.90
48912;DHT22;34722;52.108;5.044;2022-10-15T22:45:06;13.10;99.90
48912;DHT22;34722;52.108;5.044;2022-10-15T22:47:35;13.00;99.90
48912;DHT22;34722;52.108;5.044;2022-10-15T22:50:03;12.90;99.90
48912;DHT22;34722;52.108;5.044;2022-10-15T22:52:29;12.90;99.90
48912;DHT22;34722;52.108;5.044;2022-10-15T22:54:54;12.80;99.90
48912;DHT22;34722;52.108;5.044;2022-10-15T22:57:20;12.80;99.90
48912;DHT22;34722;52.108;5.044;2022-10-15T22:59:46;12.80;99.90
48912;DHT22;34722;52.108;5.044;2022-10-15T23:02:12;12.80;99.90
48912;DHT22;34722;52.108;5.044;2022-10-15T23:04:38;12.80;99.90
48912;DHT22;34722;52.108;5.044;2022-10-15T23:07:06;12.80;99.90
48912;DHT22;34722;52.108;5.044;2022-10-15T23:09:34;12.70;99.90
48912;DHT22;34722;52.108;5.044;2022-10-15T23:12:00;12.80;99.90
48912;DHT22;34722;52.108;5.044;2022-10-15T23:14:26;12.70;99.90
48912;DHT22;34722;52.108;5.044;2022-10-15T23:16:51;12.80;99.90
48912;DHT22;34722;52.108;5.044;2022-10-15T23:19:19;12.80;99.90
48912;DHT22;34722;52.108;5.044;2022-10-15T23:21:53;12.90;99.90
48912;DHT22;34722;52.108;5.044;2022-10-15T23:24:24;12.90;99.90
48912;DHT22;34722;52.108;5.044;2022-10-15T23:26:51;13.00;99.90
48912;DHT22;34722;52.108;5.044;2022-10-15T23:29:19;13.10;99.90
48912;DHT22;34722;52.108;5.044;2022-10-15T23:31:45;13.10;99.90
48912;DHT22;34722;52.108;5.044;2022-10-15T23:34:17;13.10;99.90
48912;DHT22;34722;52.108;5.044;2022-10-15T23:36:43;13.10;99.90
48912;DHT22;34722;52.108;5.044;2022-10-15T23:39:14;13.10;99.90
48912;DHT22;34722;52.108;5.044;2022-10-15T23:41:41;13.10;99.90
48912;DHT22;34722;52.108;5.044;2022-10-15T23:44:07;13.10;99.90
48912;DHT22;34722;52.108;5.044;2022-10-15T23:46:33;13.10;99.90
48912;DHT22;34722;52.108;5.044;2022-10-15T23:48:59;13.20;99.90
48912;DHT22;34722;52.108;5.044;2022-10-15T23:51:29;13.10;99.90
48912;DHT22;34722;52.108;5.044;2022-10-15T23:53:56;13.10;99.90
48912;DHT22;34722;52.108;5.044;2022-10-15T23:56:24;13.10;99.90
48912;DHT22;34722;52.108;5.044;2022-10-15T23:58:51;13.00;99.90
